Time;durP1;ratioP1;P1;durP2;ratioP2;P2;SDS_P1;SDS_P2;PMS_P1;PMS_P2;Temp;Humidity;BMP_temperature;BMP_pressure;BME280_temperature;BME280_humidity;BME280_pressure;Samples;Min_cycle;Max_cycle;Signal;HPM_P1;HPM_P2
2022/03/26 00:00:35;;;;;;;7.00;4.07;;;;;;;7.61;58.99;101907.00;6124191;23;20010;-70
2022/03/26 00:03:01;;;;;;;8.63;4.47;;;;;;;7.56;59.36;101904.06;6095963;23;20063;-71
2022/03/26 00:05:26;;;;;;;9.27;4.45;;;;;;;7.47;59.56;101904.25;6145554;23;20006;-72
2022/03/26 00:07:52;;;;;;;15.60;5.35;;;;;;;7.39;60.05;101903.63;6149024;23;20412;-72
2022/03/26 00:10:17;;;;;;;11.50;4.10;;;;;;;7.30;59.61;101905.72;6124453;23;20013;-69
2022/03/26 00:12:45;;;;;;;5.03;3.08;;;;;;;7.23;60.05;101894.00;6151303;23;20374;-75
2022/03/26 00:15:12;;;;;;;9.73;4.00;;;;;;;7.21;60.60;101906.97;6126071;23;20013;-72
2022/03/26 00:17:38;;;;;;;8.45;3.60;;;;;;;7.16;60.50;101907.59;6151282;22;20310;-71
2022/03/26 00:20:06;;;;;;;7.75;2.78;;;;;;;7.12;59.95;101899.00;6150658;23;20013;-69
2022/03/26 00:22:32;;;;;;;8.57;4.43;;;;;;;7.07;60.86;101890.63;6100584;23;20016;-73
2022/03/26 00:24:57;;;;;;;9.57;3.80;;;;;;;7.08;60.99;101896.91;6125273;23;20002;-71
2022/03/26 00:27:23;;;;;;;11.35;4.85;;;;;;;7.06;60.97;101896.28;6100592;23;20025;-71
2022/03/26 00:29:48;;;;;;;13.13;4.10;;;;;;;7.02;60.46;101893.13;6123233;23;20069;-72
2022/03/26 00:32:14;;;;;;;13.65;4.50;;;;;;;6.97;61.70;101890.19;6150383;23;20024;-70
2022/03/26 00:34:39;;;;;;;8.32;4.10;;;;;;;6.92;60.67;101884.53;6098972;23;20439;-70
2022/03/26 00:37:05;;;;;;;9.85;3.08;;;;;;;6.87;60.53;101895.19;6148823;23;20010;-71
2022/03/26 00:39:31;;;;;;;6.13;2.88;;;;;;;6.82;61.53;101893.94;6123919;23;20005;-70
2022/03/26 00:41:57;;;;;;;4.38;2.50;;;;;;;6.76;61.07;101888.47;6122130;23;20029;-70
2022/03/26 00:44:23;;;;;;;4.13;2.17;;;;;;;6.73;60.78;101884.28;6150627;23;20362;-69
2022/03/26 00:46:49;;;;;;;4.03;2.22;;;;;;;6.66;61.42;101883.44;6121914;23;20010;-71
2022/03/26 00:49:17;;;;;;;3.90;1.90;;;;;;;6.67;61.65;101895.13;6122587;23;20419;-70
2022/03/26 00:51:43;;;;;;;6.78;3.13;;;;;;;6.63;61.23;101889.28;6125750;23;20010;-70
2022/03/26 00:54:09;;;;;;;4.47;2.25;;;;;;;6.61;61.58;101885.91;6147981;22;20012;-69
2022/03/26 00:56:40;;;;;;;4.25;2.10;;;;;;;6.57;61.73;101884.63;6149424;23;20005;-71
2022/03/26 00:59:06;;;;;;;3.47;2.00;;;;;;;6.55;61.91;101882.13;6150918;23;20005;-70
2022/03/26 01:01:33;;;;;;;5.25;2.90;;;;;;;6.51;61.45;101886.28;6149495;23;20025;-71
2022/03/26 01:03:59;;;;;;;5.88;2.65;;;;;;;6.47;62.33;101872.28;6149744;23;20051;-71
2022/03/26 01:06:29;;;;;;;9.57;2.95;;;;;;;6.44;62.38;101880.84;6147665;23;20005;-70
2022/03/26 01:09:04;;;;;;;8.52;3.30;;;;;;;6.27;62.26;101863.19;6076936;23;20339;-71
2022/03/26 01:11:30;;;;;;;4.85;2.88;;;;;;;6.35;62.80;101882.06;6146841;22;20021;-70
2022/03/26 01:13:56;;;;;;;5.05;3.25;;;;;;;6.30;62.10;101879.09;6149537;23;20013;-70
2022/03/26 01:16:25;;;;;;;4.80;2.63;;;;;;;6.28;62.04;101882.03;6118207;23;20061;-70
2022/03/26 01:18:52;;;;;;;5.90;2.80;;;;;;;6.26;62.95;101875.09;6121532;23;20010;-70
2022/03/26 01:21:19;;;;;;;6.07;2.28;;;;;;;6.21;62.31;101864.03;6145888;23;20029;-69
2022/03/26 01:23:46;;;;;;;4.32;2.50;;;;;;;6.22;62.89;101869.25;6098544;23;20021;-71
2022/03/26 01:26:13;;;;;;;5.22;2.47;;;;;;;6.21;62.38;101874.88;6118549;23;20005;-71
2022/03/26 01:28:38;;;;;;;6.97;3.30;;;;;;;6.20;62.97;101865.06;6072169;23;20532;-71
2022/03/26 01:31:04;;;;;;;10.23;4.38;;;;;;;6.21;62.88;101875.72;6098373;23;20014;-72
2022/03/26 01:33:29;;;;;;;9.38;4.43;;;;;;;6.20;63.31;101870.47;6148351;23;20021;-70
2022/03/26 01:35:55;;;;;;;10.27;4.68;;;;;;;6.19;62.99;101866.09;6145454;23;20012;-71
2022/03/26 01:38:20;;;;;;;7.18;4.65;;;;;;;6.21;62.85;101867.56;6074558;23;20013;-70
2022/03/26 01:40:48;;;;;;;7.63;4.68;;;;;;;6.25;63.43;101867.97;6147667;23;20014;-70
2022/03/26 01:43:13;;;;;;;14.23;3.92;;;;;;;6.35;62.66;101873.91;6148408;23;20002;-71
2022/03/26 01:45:39;;;;;;;8.10;3.88;;;;;;;6.32;63.02;101871.56;6148562;23;19998;-70
2022/03/26 01:48:04;;;;;;;13.20;6.05;;;;;;;6.29;63.58;101871.97;6122521;23;20310;-71
2022/03/26 01:50:30;;;;;;;8.40;4.57;;;;;;;6.23;63.55;101872.78;6121990;23;20014;-71
2022/03/26 01:52:57;;;;;;;9.25;3.90;;;;;;;6.20;63.72;101871.31;6149080;23;20013;-72
2022/03/26 01:55:23;;;;;;;11.88;5.38;;;;;;;6.14;63.53;101871.28;6097901;23;20016;-72
2022/03/26 01:57:50;;;;;;;7.75;4.03;;;;;;;6.08;63.84;101876.47;6150260;23;20067;-73
2022/03/26 02:00:16;;;;;;;7.60;3.55;;;;;;;6.01;63.33;101872.06;6150422;23;20006;-72
2022/03/26 02:02:43;;;;;;;9.95;4.18;;;;;;;5.91;64.13;101869.66;6124061;23;20005;-74
2022/03/26 02:05:13;;;;;;;10.43;4.85;;;;;;;5.84;63.86;101875.06;6149208;22;20305;-74
2022/03/26 02:07:43;;;;;;;12.43;6.43;;;;;;;5.77;64.03;101879.63;6149921;23;20076;-75
2022/03/26 02:10:13;;;;;;;14.90;7.50;;;;;;;5.68;63.82;101870.78;6151494;22;20009;-75
2022/03/26 02:12:39;;;;;;;18.60;8.88;;;;;;;5.63;63.99;101875.94;6124002;23;20056;-74
2022/03/26 02:15:09;;;;;;;15.68;7.28;;;;;;;5.56;64.40;101878.63;6122613;23;20430;-74
2022/03/26 02:17:35;;;;;;;11.20;6.05;;;;;;;5.43;64.49;101867.66;6122990;23;20001;-74
2022/03/26 02:20:04;;;;;;;13.57;6.10;;;;;;;5.41;65.21;101875.97;6149930;23;20305;-75
2022/03/26 02:22:29;;;;;;;14.98;5.28;;;;;;;5.36;65.23;101878.47;6122700;23;20009;-74
2022/03/26 02:24:56;;;;;;;15.15;5.90;;;;;;;5.30;65.13;101878.38;6149443;23;20016;-74
2022/03/26 02:27:23;;;;;;;15.65;6.60;;;;;;;5.25;65.24;101868.13;6150796;22;20014;-74
2022/03/26 02:29:50;;;;;;;13.07;6.68;;;;;;;5.20;65.69;101857.03;6121403;23;20010;-75
2022/03/26 02:32:21;;;;;;;12.55;6.25;;;;;;;5.19;65.51;101866.22;6123397;23;20079;-75
2022/03/26 02:34:48;;;;;;;17.70;7.45;;;;;;;5.23;65.64;101872.94;6148372;23;20013;-74
2022/03/26 02:37:13;;;;;;;19.23;8.57;;;;;;;5.27;65.68;101870.66;6150729;23;20076;-73
2022/03/26 02:39:39;;;;;;;29.00;10.77;;;;;;;5.29;65.61;101855.03;6122929;23;20618;-75
2022/03/26 02:42:05;;;;;;;24.35;9.13;;;;;;;5.24;65.86;101844.75;6124454;23;20009;-73
2022/03/26 02:44:30;;;;;;;20.02;9.07;;;;;;;5.35;66.07;101859.66;6121071;23;20057;-73
2022/03/26 02:46:56;;;;;;;19.52;9.50;;;;;;;5.35;66.09;101848.81;6122931;23;20058;-74
2022/03/26 02:49:21;;;;;;;19.45;9.15;;;;;;;5.44;66.50;101847.63;6150336;22;20031;-73
2022/03/26 02:51:47;;;;;;;18.13;8.88;;;;;;;5.49;66.14;101855.16;6122990;23;20002;-74
2022/03/26 02:54:18;;;;;;;22.65;9.95;;;;;;;5.47;66.23;101849.94;6149428;23;20010;-73
2022/03/26 02:56:51;;;;;;;21.00;9.27;;;;;;;5.53;65.97;101851.84;6076328;23;20013;-72
2022/03/26 02:59:18;;;;;;;25.65;12.25;;;;;;;5.65;66.15;101849.47;6148729;23;20017;-74
2022/03/26 03:01:44;;;;;;;24.90;10.20;;;;;;;5.76;66.11;101846.19;6124281;23;20002;-74
2022/03/26 03:04:10;;;;;;;22.70;9.13;;;;;;;5.85;66.57;101843.31;6150818;23;20016;-75
2022/03/26 03:06:40;;;;;;;18.15;9.15;;;;;;;5.93;65.44;101843.16;6127566;23;20005;-77
2022/03/26 03:09:07;;;;;;;22.25;10.52;;;;;;;5.86;65.73;101834.13;6124315;23;20075;-75
2022/03/26 03:11:34;;;;;;;23.20;10.68;;;;;;;5.94;65.77;101850.25;6151351;23;20076;-74
2022/03/26 03:13:59;;;;;;;23.05;9.40;;;;;;;5.91;65.24;101850.66;6154831;23;20006;-74
2022/03/26 03:16:25;;;;;;;18.33;9.45;;;;;;;5.89;65.30;101852.75;6148405;23;20659;-75
2022/03/26 03:18:50;;;;;;;26.83;11.40;;;;;;;5.79;65.39;101846.84;6150119;23;20032;-75
2022/03/26 03:21:16;;;;;;;26.42;11.27;;;;;;;5.74;66.17;101847.44;6116318;23;20088;-72
2022/03/26 03:23:45;;;;;;;27.42;11.10;;;;;;;5.69;65.94;101844.47;6090167;23;20366;-73
2022/03/26 03:26:11;;;;;;;26.95;10.02;;;;;;;5.62;66.01;101838.97;6146743;23;20002;-73
2022/03/26 03:28:38;;;;;;;28.42;11.98;;;;;;;5.62;65.98;101844.41;6154533;22;20013;-73
2022/03/26 03:31:03;;;;;;;18.38;8.38;;;;;;;5.60;66.21;101846.50;6127782;23;20305;-72
2022/03/26 03:33:29;;;;;;;23.95;9.85;;;;;;;5.56;66.69;101845.22;6131832;23;20024;-73
2022/03/26 03:35:57;;;;;;;23.52;9.25;;;;;;;5.49;66.77;101847.03;6162993;23;20012;-72
2022/03/26 03:38:24;;;;;;;23.13;9.70;;;;;;;5.51;66.99;101853.94;6139883;23;20041;-70
2022/03/26 03:40:49;;;;;;;24.65;11.38;;;;;;;5.47;66.82;101846.41;6139155;23;20061;-71
2022/03/26 03:43:18;;;;;;;26.20;12.05;;;;;;;5.48;66.95;101837.25;6164107;23;20006;-72
2022/03/26 03:45:44;;;;;;;28.80;10.50;;;;;;;5.56;67.42;101850.63;6105469;23;20012;-72
2022/03/26 03:48:17;;;;;;;30.42;13.07;;;;;;;5.45;66.50;101829.47;6150462;23;20009;-73
2022/03/26 03:50:43;;;;;;;35.67;14.25;;;;;;;5.58;66.62;101837.72;6127508;23;20009;-71
2022/03/26 03:53:09;;;;;;;23.25;11.85;;;;;;;5.59;66.67;101847.53;6151403;23;20001;-72
2022/03/26 03:55:34;;;;;;;29.35;12.73;;;;;;;5.59;66.87;101844.81;6122813;23;20016;-74
2022/03/26 03:58:00;;;;;;;23.92;11.95;;;;;;;5.58;66.92;101843.16;6150067;23;20080;-73
2022/03/26 04:00:25;;;;;;;34.95;13.73;;;;;;;5.58;66.96;101849.41;6147224;22;20036;-73
2022/03/26 04:02:52;;;;;;;26.17;11.90;;;;;;;5.56;67.40;101839.78;6149557;22;20028;-73
2022/03/26 04:05:18;;;;;;;30.00;12.23;;;;;;;5.52;66.57;101838.50;6148030;22;20005;-72
2022/03/26 04:07:44;;;;;;;28.27;11.75;;;;;;;5.49;67.31;101841.59;6075171;23;20037;-73
2022/03/26 04:10:10;;;;;;;27.70;11.00;;;;;;;5.52;66.83;101850.22;6145551;23;20012;-74
2022/03/26 04:12:39;;;;;;;29.55;12.80;;;;;;;5.37;67.56;101830.47;6124698;23;20092;-72
2022/03/26 04:15:09;;;;;;;32.00;13.35;;;;;;;5.39;67.48;101850.94;6126219;23;20088;-73
2022/03/26 04:17:34;;;;;;;31.92;14.18;;;;;;;5.36;67.25;101829.63;6124776;23;20008;-72
2022/03/26 04:20:01;;;;;;;27.17;11.20;;;;;;;5.55;67.05;101843.56;6150701;23;20009;-72
2022/03/26 04:22:27;;;;;;;32.80;13.15;;;;;;;5.51;66.97;101842.25;6148753;23;20006;-71
2022/03/26 04:24:53;;;;;;;31.23;13.40;;;;;;;5.44;67.54;101846.81;6123891;23;20012;-72
2022/03/26 04:27:18;;;;;;;35.42;14.25;;;;;;;5.43;67.30;101835.09;6147500;23;20451;-70
2022/03/26 04:29:43;;;;;;;27.10;12.68;;;;;;;5.48;67.05;101848.09;6098059;23;20443;-72
2022/03/26 04:32:10;;;;;;;24.55;11.63;;;;;;;5.54;67.17;101836.44;6149483;23;20112;-73
2022/03/26 04:34:36;;;;;;;31.50;14.82;;;;;;;5.68;66.65;101843.63;6123851;23;20079;-73
2022/03/26 04:37:02;;;;;;;30.73;14.82;;;;;;;5.67;66.55;101841.94;6147457;22;20294;-72
2022/03/26 04:39:28;;;;;;;39.67;17.80;;;;;;;5.67;67.37;101847.38;6123712;23;20017;-72
2022/03/26 04:41:53;;;;;;;28.27;13.23;;;;;;;5.69;66.79;101844.47;6148669;23;20081;-72
2022/03/26 04:44:19;;;;;;;32.97;13.68;;;;;;;5.72;66.95;101844.94;6147638;23;20013;-71
2022/03/26 04:46:44;;;;;;;27.45;11.93;;;;;;;5.94;66.61;101847.53;6124514;23;20009;-72
2022/03/26 04:49:10;;;;;;;37.72;15.00;;;;;;;5.94;66.07;101853.81;6075782;23;20017;-71
2022/03/26 04:51:35;;;;;;;30.38;14.25;;;;;;;5.91;67.03;101842.50;6123164;23;20005;-71
2022/03/26 04:54:01;;;;;;;39.28;16.27;;;;;;;5.91;65.76;101848.78;6152793;23;20010;-71
2022/03/26 04:56:26;;;;;;;31.25;13.90;;;;;;;5.88;66.37;101851.06;6150209;23;20670;-72
2022/03/26 04:58:53;;;;;;;29.05;12.77;;;;;;;5.82;66.26;101855.41;6148914;23;20356;-72
2022/03/26 05:01:19;;;;;;;37.25;15.25;;;;;;;5.81;66.23;101859.19;6120627;23;20009;-72
2022/03/26 05:03:44;;;;;;;44.00;16.25;;;;;;;5.84;66.77;101852.50;6097125;23;20400;-71
2022/03/26 05:06:09;;;;;;;31.10;13.48;;;;;;;5.81;66.17;101853.75;6147751;23;20002;-71
2022/03/26 05:08:35;;;;;;;32.95;12.55;;;;;;;5.73;66.75;101862.03;6121653;23;20013;-70
2022/03/26 05:11:00;;;;;;;26.38;13.30;;;;;;;5.64;67.01;101853.22;6121320;23;20095;-71
2022/03/26 05:13:26;;;;;;;43.47;16.35;;;;;;;5.56;67.44;101856.91;6097096;23;20783;-71
2022/03/26 05:15:51;;;;;;;31.23;14.10;;;;;;;5.60;66.79;101854.63;6098167;23;20006;-70
2022/03/26 05:18:17;;;;;;;43.53;16.15;;;;;;;5.58;66.70;101856.72;6149550;22;20589;-70
2022/03/26 05:20:43;;;;;;;37.75;15.98;;;;;;;5.50;66.95;101862.28;6124703;23;20021;-71
2022/03/26 05:23:11;;;;;;;45.88;16.67;;;;;;;5.44;67.00;101852.22;6125195;23;20016;-70
2022/03/26 05:25:37;;;;;;;44.83;18.40;;;;;;;5.48;67.40;101869.78;6149196;23;20026;-71
2022/03/26 05:28:03;;;;;;;32.95;13.63;;;;;;;5.49;67.03;101866.03;6124623;23;20100;-71
2022/03/26 05:30:29;;;;;;;23.95;11.75;;;;;;;5.49;66.86;101866.88;6122252;23;20017;-71
2022/03/26 05:32:55;;;;;;;27.20;14.00;;;;;;;5.45;67.30;101864.72;6150017;23;20099;-70
2022/03/26 05:35:21;;;;;;;23.15;11.63;;;;;;;5.49;67.17;101871.44;6100150;23;20088;-69
2022/03/26 05:37:48;;;;;;;44.17;16.48;;;;;;;5.47;67.56;101876.25;6123905;23;20025;-71
2022/03/26 05:40:16;;;;;;;40.92;16.92;;;;;;;5.49;66.88;101876.88;6150130;23;20009;-71
2022/03/26 05:42:43;;;;;;;35.63;14.32;;;;;;;5.46;67.14;101888.13;6148415;22;20013;-70
2022/03/26 05:45:09;;;;;;;27.27;12.52;;;;;;;5.42;66.96;101874.97;6150690;23;20055;-70
2022/03/26 05:47:36;;;;;;;29.38;12.32;;;;;;;5.44;67.35;101887.50;6123808;23;20006;-72
2022/03/26 05:50:03;;;;;;;36.45;14.00;;;;;;;5.36;67.27;101889.31;6122202;23;20009;-70
2022/03/26 05:52:29;;;;;;;42.28;15.57;;;;;;;5.29;68.02;101888.41;6150219;22;20006;-71
2022/03/26 05:54:54;;;;;;;29.80;11.93;;;;;;;5.30;67.82;101895.53;6123040;23;20020;-70
2022/03/26 05:57:20;;;;;;;38.95;16.65;;;;;;;5.25;67.83;101892.53;6124472;23;20412;-70
2022/03/26 05:59:45;;;;;;;37.15;15.23;;;;;;;5.19;67.60;101898.75;6150243;23;20282;-75
2022/03/26 06:02:13;;;;;;;32.92;14.35;;;;;;;5.04;68.27;101894.22;6126949;23;20029;-72
2022/03/26 06:04:39;;;;;;;30.45;12.48;;;;;;;5.03;68.14;101897.97;6124919;23;20765;-71
2022/03/26 06:07:05;;;;;;;27.40;11.57;;;;;;;5.01;68.69;101896.50;6125796;23;20001;-72
2022/03/26 06:09:30;;;;;;;34.15;14.18;;;;;;;4.95;68.33;101895.41;6125146;23;20016;-71
2022/03/26 06:11:56;;;;;;;31.10;13.45;;;;;;;5.01;68.56;101912.75;6100604;23;20017;-69
2022/03/26 06:14:21;;;;;;;36.60;12.13;;;;;;;5.02;68.59;101909.84;6124762;23;20033;-70
2022/03/26 06:16:47;;;;;;;34.28;14.35;;;;;;;5.04;68.56;101913.22;6123790;23;20096;-71
2022/03/26 06:19:16;;;;;;;34.00;14.60;;;;;;;5.14;68.10;101906.63;6125503;23;20009;-71
2022/03/26 06:21:41;;;;;;;42.60;17.00;;;;;;;5.21;68.44;101912.94;6149221;22;20344;-71
2022/03/26 06:24:07;;;;;;;37.53;15.52;;;;;;;5.30;67.99;101906.38;6125851;23;20100;-73
2022/03/26 06:26:32;;;;;;;34.78;14.93;;;;;;;5.47;67.76;101925.09;6125303;23;20006;-71
2022/03/26 06:28:58;;;;;;;39.45;17.63;;;;;;;5.50;67.92;101921.97;6125507;23;20152;-71
2022/03/26 06:31:24;;;;;;;46.28;16.48;;;;;;;5.52;67.73;101919.91;6122943;23;20096;-71
2022/03/26 06:33:49;;;;;;;28.25;13.23;;;;;;;5.60;67.72;101927.91;6123541;23;20013;-70
2022/03/26 06:36:15;;;;;;;29.35;11.43;;;;;;;5.70;67.14;101925.69;6125121;23;20039;-71
2022/03/26 06:38:45;;;;;;;29.05;13.77;;;;;;;5.72;66.74;101928.22;6075628;23;20055;-75
2022/03/26 06:41:15;;;;;;;31.75;14.18;;;;;;;5.86;66.81;101938.13;6121924;23;20005;-71
2022/03/26 06:43:43;;;;;;;38.20;15.70;;;;;;;5.91;66.57;101940.25;6150834;23;20333;-71
2022/03/26 06:46:08;;;;;;;32.13;13.32;;;;;;;5.98;67.08;101935.75;6149376;22;20033;-71
2022/03/26 06:48:35;;;;;;;29.50;12.95;;;;;;;6.04;66.27;101931.41;6078057;23;20044;-71
2022/03/26 06:51:01;;;;;;;26.67;12.40;;;;;;;6.20;66.71;101939.22;6150498;22;20132;-70
2022/03/26 06:53:28;;;;;;;35.38;14.50;;;;;;;6.34;66.42;101944.72;6125806;23;20480;-73
2022/03/26 06:55:53;;;;;;;32.03;13.85;;;;;;;6.40;65.99;101933.91;6149726;22;20037;-72
2022/03/26 06:58:18;;;;;;;40.55;16.45;;;;;;;6.59;65.64;101939.66;6152018;23;20068;-72
2022/03/26 07:00:44;;;;;;;47.90;16.65;;;;;;;6.70;64.99;101944.50;6101879;23;20363;-72
2022/03/26 07:03:11;;;;;;;31.00;13.57;;;;;;;6.79;64.79;101948.72;6151820;23;20017;-72
2022/03/26 07:05:37;;;;;;;41.40;15.55;;;;;;;6.88;65.07;101943.09;6125197;23;20452;-72
2022/03/26 07:08:03;;;;;;;40.70;16.17;;;;;;;7.14;64.14;101951.34;6125651;23;20025;-72
2022/03/26 07:10:28;;;;;;;36.38;14.75;;;;;;;7.40;63.37;101952.41;6126322;23;20009;-73
2022/03/26 07:12:54;;;;;;;39.75;14.80;;;;;;;7.62;63.83;101960.41;6152441;22;20010;-73
2022/03/26 07:15:19;;;;;;;30.88;12.50;;;;;;;7.93;62.28;101956.19;6153179;22;20006;-71
2022/03/26 07:17:44;;;;;;;39.78;16.63;;;;;;;8.00;62.18;101954.31;6150740;23;20024;-73
2022/03/26 07:20:11;;;;;;;33.15;13.50;;;;;;;8.11;62.14;101961.84;6155095;23;20020;-73
2022/03/26 07:22:37;;;;;;;31.42;13.48;;;;;;;8.25;61.89;101964.53;6135454;23;20017;-73
2022/03/26 07:25:04;;;;;;;29.88;13.45;;;;;;;8.32;61.02;101970.81;6125977;23;20073;-71
2022/03/26 07:27:33;;;;;;;35.80;13.55;;;;;;;8.43;61.07;101963.88;6151068;22;20005;-71
2022/03/26 07:29:59;;;;;;;33.65;14.80;;;;;;;8.50;60.73;101965.56;6151014;23;20016;-70
2022/03/26 07:32:25;;;;;;;35.10;16.50;;;;;;;8.49;61.43;101963.88;6150897;22;20026;-71
2022/03/26 07:34:53;;;;;;;30.92;14.23;;;;;;;8.66;61.06;101963.41;6151262;22;20036;-71
2022/03/26 07:37:19;;;;;;;38.38;17.55;;;;;;;8.83;60.50;101971.94;6151839;22;20009;-71
2022/03/26 07:39:45;;;;;;;34.10;15.57;;;;;;;8.88;59.85;101964.78;6124238;23;20060;-74
2022/03/26 07:42:11;;;;;;;33.35;14.60;;;;;;;9.02;59.68;101962.84;6126118;23;20088;-74
2022/03/26 07:44:36;;;;;;;32.55;14.93;;;;;;;9.04;59.12;101957.16;6127453;23;20013;-76
2022/03/26 07:47:02;;;;;;;26.55;13.63;;;;;;;9.12;59.35;101967.81;6153794;23;20001;-75
2022/03/26 07:49:30;;;;;;;37.35;15.25;;;;;;;9.22;59.13;101970.06;6128224;23;20032;-76
2022/03/26 07:51:58;;;;;;;30.17;15.48;;;;;;;9.43;59.01;101985.25;6154379;22;20076;-73
2022/03/26 07:54:24;;;;;;;30.73;14.25;;;;;;;10.05;57.98;101985.41;6126376;23;20005;-72
2022/03/26 07:56:49;;;;;;;28.02;13.00;;;;;;;10.22;57.51;101977.47;6151883;23;20089;-75
2022/03/26 07:59:15;;;;;;;30.90;14.32;;;;;;;10.30;57.05;101968.97;6124395;23;20020;-72
2022/03/26 08:01:41;;;;;;;39.70;17.10;;;;;;;10.51;56.01;101990.66;6125592;23;20002;-70
2022/03/26 08:04:06;;;;;;;29.55;13.60;;;;;;;10.53;56.19;101978.44;6123434;23;20018;-71
2022/03/26 08:06:32;;;;;;;21.45;11.63;;;;;;;10.84;55.76;101987.53;6149798;23;20096;-72
2022/03/26 08:08:57;;;;;;;33.22;13.07;;;;;;;11.03;55.46;101985.63;6100429;23;20460;-73
2022/03/26 08:11:22;;;;;;;22.88;11.05;;;;;;;11.17;55.60;101978.06;6097887;23;20088;-71
2022/03/26 08:13:48;;;;;;;28.50;12.93;;;;;;;11.46;54.63;101989.22;6150587;23;20321;-70
2022/03/26 08:16:35;;;;;;;25.40;11.00;;;;;;;11.67;54.72;101977.72;6143675;23;20009;-72
2022/03/26 08:19:00;;;;;;;23.90;10.82;;;;;;;12.01;54.17;101975.28;6149476;22;20012;-72
2022/03/26 08:21:26;;;;;;;24.70;11.32;;;;;;;12.15;53.49;101972.31;6116854;23;20017;-71
2022/03/26 08:23:54;;;;;;;21.98;10.85;;;;;;;12.42;53.59;101982.78;6115294;23;20005;-71
2022/03/26 08:26:20;;;;;;;24.15;11.43;;;;;;;12.59;52.74;101983.72;6093651;23;20030;-70
2022/03/26 08:28:46;;;;;;;23.02;12.07;;;;;;;12.85;51.94;101995.22;6142545;22;20016;-70
2022/03/26 08:31:14;;;;;;;28.95;12.90;;;;;;;12.95;51.35;101992.69;6092840;23;20727;-71
2022/03/26 08:33:40;;;;;;;29.00;12.45;;;;;;;13.09;50.99;101998.75;6143745;23;20008;-70
2022/03/26 08:36:06;;;;;;;19.80;10.40;;;;;;;13.28;51.45;101986.47;6122252;23;20009;-71
2022/03/26 08:38:32;;;;;;;22.52;9.98;;;;;;;13.56;50.63;101997.72;6099300;23;20151;-71
2022/03/26 08:44:27;;;;;;;19.73;10.25;;;;;;;14.00;49.49;101981.38;6174900;23;20439;-72
2022/03/26 08:47:05;;;;;;;;;;;;;;;;;;;;;
2022/03/26 08:50:05;;;;;;;;;;;;;;;;;;;;;
2022/03/26 08:52:34;;;;;;;20.40;9.45;;;;;;;14.81;47.70;101986.41;6152916;23;20118;-71
2022/03/26 08:55:28;;;;;;;25.30;10.68;;;;;;;14.94;47.33;101978.88;6128031;23;20005;-73
2022/03/26 08:58:23;;;;;;;26.35;11.43;;;;;;;15.18;46.96;101979.38;6127036;23;20017;-71
2022/03/26 09:01:13;;;;;;;19.55;9.27;;;;;;;15.36;46.82;101970.78;6087979;23;20010;-70
2022/03/26 09:04:01;;;;;;;20.25;9.15;;;;;;;15.71;46.29;101985.13;6103063;23;20073;-70
2022/03/26 09:06:36;;;;;;;13.82;7.50;;;;;;;16.00;45.92;101984.84;6147651;22;20058;-73
2022/03/26 09:09:04;;;;;;;10.80;6.72;;;;;;;16.52;45.29;102002.56;6124081;23;20071;-73
2022/03/26 09:11:49;;;;;;;;;;;;;;;;;;;;;
2022/03/26 09:14:23;;;;;;;17.73;8.05;;;;;;;17.25;43.16;102005.38;6152002;23;20739;-72
2022/03/26 09:17:06;;;;;;;20.17;8.93;;;;;;;17.48;41.86;102000.44;6124108;23;20014;-71
2022/03/26 09:19:46;;;;;;;;;;;;;;;;;;;;;
2022/03/26 10:15:29;;;;;;;17.15;9.23;;;;;;;40.23;10.62;102008.84;6041786;23;20075;-75
2022/03/26 10:18:28;;;;;;;;;;;;;;;;;;;;;
2022/03/26 10:25:09;;;;;;;15.15;8.82;;;;;;;42.14;9.73;102017.19;6030032;23;20015;-76
2022/03/26 10:27:38;;;;;;;10.82;6.75;;;;;;;41.45;9.76;101989.28;6075809;23;20010;-73
2022/03/26 10:30:04;;;;;;;14.00;8.40;;;;;;;40.81;10.25;101991.41;6095523;23;20091;-75
2022/03/26 10:32:59;;;;;;;;;;;;;;;;;;;;;
2022/03/26 10:36:10;;;;;;;12.23;6.90;;;;;;;40.22;11.23;101981.47;6123266;23;20085;-75
2022/03/26 10:39:05;;;;;;;13.52;7.05;;;;;;;40.27;11.02;101992.41;6096602;23;20013;-75
2022/03/26 10:42:03;;;;;;;11.77;5.70;;;;;;;40.73;10.72;102012.88;6125011;23;20005;-75
2022/03/26 10:47:28;;;;;;;10.90;6.05;;;;;;;40.64;10.68;101981.91;6152077;23;20436;-73
2022/03/26 10:50:26;;;;;;;12.52;7.55;;;;;;;40.65;10.79;102006.47;6099154;23;20013;-73
2022/03/26 10:52:57;;;;;;;11.55;8.32;;;;;;;40.17;10.66;101999.94;6136339;23;20005;-72
2022/03/26 10:55:23;;;;;;;18.05;8.45;;;;;;;39.62;10.88;101996.31;6125279;23;20462;-71
2022/03/26 10:57:50;;;;;;;22.88;9.77;;;;;;;39.26;10.45;101994.69;6125272;23;20017;-72
2022/03/26 11:00:18;;;;;;;19.08;10.27;;;;;;;38.79;10.64;101999.38;6122509;23;20332;-72
2022/03/26 11:02:46;;;;;;;14.40;7.93;;;;;;;38.75;11.23;101990.81;6151333;23;20009;-76
2022/03/26 11:05:12;;;;;;;12.82;7.88;;;;;;;38.77;11.09;101994.03;6153267;22;20012;-70
2022/03/26 11:07:41;;;;;;;19.08;10.02;;;;;;;39.19;10.18;101989.06;6148711;23;20010;-72
2022/03/26 11:10:10;;;;;;;17.15;9.68;;;;;;;39.21;9.96;101982.91;6149282;23;20009;-73
2022/03/26 11:12:42;;;;;;;14.60;8.60;;;;;;;39.30;10.13;101988.94;6122605;23;20405;-73
2022/03/26 11:15:11;;;;;;;26.58;11.07;;;;;;;39.85;9.94;101986.13;6150453;22;20059;-72
2022/03/26 11:18:05;;;;;;;15.13;7.72;;;;;;;40.06;10.17;101982.94;6148726;23;20327;-71
2022/03/26 11:20:33;;;;;;;20.98;9.65;;;;;;;39.49;10.55;101984.59;6119750;23;20009;-73
2022/03/26 11:23:19;;;;;;;17.33;10.25;;;;;;;37.87;11.22;101974.84;6130606;23;20005;-72
2022/03/26 11:26:03;;;;;;;11.95;6.13;;;;;;;38.60;11.49;101964.41;6164132;23;20032;-74
2022/03/26 11:28:50;;;;;;;14.88;9.43;;;;;;;39.39;10.92;101980.63;6131917;23;20016;-73
2022/03/26 11:31:33;;;;;;;12.38;8.07;;;;;;;40.57;10.42;101982.09;6157057;23;20024;-73
2022/03/26 11:34:05;;;;;;;12.07;6.93;;;;;;;41.47;10.03;101980.22;6157662;23;20968;-73
2022/03/26 11:36:47;;;;;;;17.40;7.33;;;;;;;42.02;9.72;101975.63;6152812;23;19997;-72
2022/03/26 11:39:15;;;;;;;12.02;7.63;;;;;;;42.70;9.42;101966.47;6153915;23;20477;-73
2022/03/26 11:41:42;;;;;;;15.02;9.40;;;;;;;43.12;8.68;101966.47;6158214;22;20010;-74
2022/03/26 11:44:09;;;;;;;22.02;14.25;;;;;;;43.37;7.94;101970.66;6246435;22;20018;-74
2022/03/26 11:52:23;;;;;;;13.35;9.30;;;;;;;41.44;8.77;101969.63;6271010;22;20624;-73
2022/03/26 11:54:58;;;;;;;29.23;11.93;;;;;;;41.20;8.90;101964.00;6242230;22;20008;-75
2022/03/26 11:57:25;;;;;;;15.40;10.85;;;;;;;41.44;8.50;101961.81;6245021;22;20049;-75
2022/03/26 11:59:55;;;;;;;20.88;10.23;;;;;;;41.28;8.91;101959.72;6247964;22;19999;-72
2022/03/26 12:02:29;;;;;;;24.92;12.45;;;;;;;40.98;9.01;101949.31;6221822;22;20004;-73
2022/03/26 12:06:35;;;;;;;15.88;11.10;;;;;;;41.20;9.06;101968.94;6249385;22;20021;-74
2022/03/26 12:07:46;;;;;;;16.17;8.95;;;;;;;40.97;9.42;101950.56;6250744;22;20007;-74
2022/03/26 12:10:12;;;;;;;17.77;11.40;;;;;;;40.92;9.30;101962.53;6249843;22;20094;-73
2022/03/26 12:12:58;;;;;;;19.77;10.30;;;;;;;40.53;9.31;101944.06;6251152;22;20011;-74
2022/03/26 12:15:25;;;;;;;12.90;8.60;;;;;;;40.15;9.45;101936.56;6272242;22;19995;-73
2022/03/26 12:17:53;;;;;;;17.80;11.10;;;;;;;40.25;9.19;101949.06;6276994;22;20003;-72
2022/03/26 12:20:23;;;;;;;21.27;10.93;;;;;;;40.26;9.23;101957.22;6275914;22;20007;-74
2022/03/26 12:23:08;;;;;;;21.33;10.90;;;;;;;40.86;9.16;101952.81;6273718;22;20007;-73
2022/03/26 12:25:51;;;;;;;14.40;8.90;;;;;;;41.94;8.67;101961.88;6251305;22;20030;-73
2022/03/26 12:28:18;;;;;;;23.10;10.50;;;;;;;41.85;8.62;101951.84;6276758;22;20118;-72
2022/03/26 12:30:49;;;;;;;17.77;10.18;;;;;;;41.68;8.63;101938.72;6276607;22;20418;-73
2022/03/26 12:33:16;;;;;;;16.75;10.65;;;;;;;41.96;8.29;101939.28;6248159;22;20024;-73
2022/03/26 12:35:44;;;;;;;19.13;11.55;;;;;;;42.08;8.04;101938.53;6276922;22;20003;-75
2022/03/26 12:38:09;;;;;;;20.05;11.07;;;;;;;42.03;8.06;101931.28;6247608;22;20011;-73
2022/03/26 12:40:39;;;;;;;19.02;10.05;;;;;;;42.33;7.78;101934.22;6248412;22;20003;-72
2022/03/26 12:43:10;;;;;;;10.73;6.93;;;;;;;43.31;7.99;101926.44;6193981;22;20024;-72
2022/03/26 12:45:36;;;;;;;18.13;9.32;;;;;;;43.66;7.41;101921.59;6155159;22;20017;-73